Time;durP1;ratioP1;P1;durP2;ratioP2;P2;SDS_P1;SDS_P2;PMS_P1;PMS_P2;Temp;Humidity;BMP_temperature;BMP_pressure;BME280_temperature;BME280_humidity;BME280_pressure;Samples;Min_cycle;Max_cycle;Signal;HPM_P1;HPM_P2
2021/12/06 00:00:26;;;;;;;32.88;18.63;;;;;;;2.12;78.77;93817.69;5132843;27;20114;-76
2021/12/06 00:02:53;;;;;;;28.38;18.00;;;;;;;1.88;78.75;93791.09;5099510;27;20039;-76
2021/12/06 00:05:18;;;;;;;30.60;17.20;;;;;;;2.04;78.63;93807.09;5132641;27;20086;-76
2021/12/06 00:07:44;;;;;;;43.80;21.38;;;;;;;1.96;80.58;93810.16;5132904;27;20055;-76
2021/12/06 00:10:10;;;;;;;32.13;19.33;;;;;;;2.03;79.57;93817.44;5115916;27;20031;-76
2021/12/06 00:12:36;;;;;;;33.92;18.33;;;;;;;1.76;79.00;93797.84;5132692;27;20019;-76
2021/12/06 00:15:01;;;;;;;34.28;17.23;;;;;;;1.74;78.20;93810.72;5098447;27;20091;-76
2021/12/06 00:17:27;;;;;;;29.98;17.38;;;;;;;1.76;78.16;93811.47;5115562;27;20085;-76
2021/12/06 00:19:52;;;;;;;31.70;18.17;;;;;;;1.65;78.94;93816.44;5134139;27;20035;-76
2021/12/06 00:22:22;;;;;;;32.15;18.38;;;;;;;1.64;79.50;93819.91;5132632;27;20031;-76
2021/12/06 00:24:57;;;;;;;31.92;18.10;;;;;;;1.77;80.29;93822.50;5116120;27;20039;-76
2021/12/06 00:27:23;;;;;;;37.03;19.02;;;;;;;1.78;80.12;93832.66;5132541;27;20059;-76
2021/12/06 00:29:48;;;;;;;33.13;16.33;;;;;;;1.83;80.20;93842.59;5115400;27;20039;-76
2021/12/06 00:32:14;;;;;;;29.80;16.35;;;;;;;1.79;80.09;93844.53;5132478;27;20453;-76
2021/12/06 00:34:40;;;;;;;32.72;17.73;;;;;;;1.84;79.67;93848.53;5133686;27;20035;-76
2021/12/06 00:39:54;;;;;;;32.15;17.77;;;;;;;1.89;80.20;93843.94;5107341;27;20496;-76
2021/12/06 00:42:23;;;;;;;29.05;17.30;;;;;;;1.87;79.64;93835.56;5113228;27;20015;-76
2021/12/06 00:44:48;;;;;;;29.83;17.13;;;;;;;1.82;78.21;93842.72;5094470;28;20031;-76
2021/12/06 00:47:14;;;;;;;35.03;20.25;;;;;;;1.87;79.03;93828.69;5111667;28;20393;-76
2021/12/06 00:49:39;;;;;;;32.38;17.90;;;;;;;1.82;79.71;93822.22;5094475;28;20062;-76
2021/12/06 00:52:05;;;;;;;31.13;16.55;;;;;;;1.89;80.36;93839.63;5094778;28;20039;-76
2021/12/06 00:54:34;;;;;;;27.23;16.40;;;;;;;1.92;80.37;93841.19;5094446;28;20039;-76
2021/12/06 00:57:01;;;;;;;35.17;19.02;;;;;;;1.96;80.78;93838.34;5111529;28;20107;-76
2021/12/06 00:59:26;;;;;;;43.13;23.90;;;;;;;1.97;82.18;93821.22;5110484;28;20481;-76
2021/12/06 01:01:54;;;;;;;37.67;20.10;;;;;;;2.09;81.70;93817.88;5094462;28;20058;-76
2021/12/06 01:04:19;;;;;;;42.15;22.15;;;;;;;2.12;81.66;93819.41;5111028;28;20042;-76
2021/12/06 01:06:45;;;;;;;38.00;19.50;;;;;;;2.21;81.88;93829.88;5094503;28;20024;-76
2021/12/06 01:09:10;;;;;;;41.63;21.13;;;;;;;2.23;81.35;93834.91;5110795;28;20050;-76
2021/12/06 01:11:35;;;;;;;40.67;21.80;;;;;;;2.20;80.72;93843.63;5094131;28;20084;-76
2021/12/06 01:14:01;;;;;;;52.78;24.95;;;;;;;2.24;83.43;93852.72;5112206;28;20027;-76
2021/12/06 01:16:28;;;;;;;44.58;24.17;;;;;;;2.28;82.41;93845.66;5112240;28;20024;-76
2021/12/06 01:18:53;;;;;;;42.00;23.17;;;;;;;2.30;82.06;93830.19;5112126;28;20027;-76
2021/12/06 01:21:26;;;;;;;41.17;23.10;;;;;;;2.20;81.34;93842.78;5110788;28;20409;-76
2021/12/06 01:23:57;;;;;;;42.95;23.60;;;;;;;2.03;82.64;93836.19;5112223;28;20028;-76
2021/12/06 01:39:20;;;;;;;36.78;19.77;;;;;;;2.23;80.77;93792.16;5096466;28;20073;-76
2021/12/06 01:41:58;;;;;;;33.05;18.70;;;;;;;2.30;80.60;93782.31;5083816;27;20035;-76
2021/12/06 01:44:26;;;;;;;41.53;21.08;;;;;;;2.32;80.27;93789.91;5131063;27;20496;-76
2021/12/06 01:46:57;;;;;;;40.55;20.88;;;;;;;2.21;79.90;93794.00;5130935;27;20039;-76
2021/12/06 01:49:29;;;;;;;;;;;;;;;2.23;79.61;93797.28;5132723;27;20087;-76
2021/12/06 01:51:56;;;;;;;35.05;18.27;;;;;;;2.18;79.87;93795.94;5131243;27;19928;-76
2021/12/06 01:54:21;;;;;;;32.67;18.50;;;;;;;2.26;79.41;93795.41;5130932;27;20031;-76
2021/12/06 01:56:48;;;;;;;32.42;18.52;;;;;;;2.29;79.72;93797.81;5130919;27;20075;-76
2021/12/06 01:59:13;;;;;;;36.47;20.67;;;;;;;2.31;80.29;93783.13;5113616;28;20027;-76
2021/12/06 02:01:39;;;;;;;33.83;19.67;;;;;;;2.35;80.41;93789.69;5113757;28;20508;-76
2021/12/06 02:04:04;;;;;;;34.30;19.35;;;;;;;2.36;80.23;93775.94;5096656;28;20059;-76
2021/12/06 02:06:30;;;;;;;36.53;19.15;;;;;;;2.34;80.22;93783.75;5123566;27;20043;-76
2021/12/06 02:08:56;;;;;;;39.75;21.25;;;;;;;2.31;79.76;93780.56;5127245;28;20035;-76
2021/12/06 02:11:24;;;;;;;37.35;19.13;;;;;;;2.31;79.86;93770.31;5136511;27;20026;-76
2021/12/06 02:14:05;;;;;;;33.25;18.52;;;;;;;2.27;80.01;93790.19;5120291;27;20033;-76
2021/12/06 02:16:53;;;;;;;31.77;18.17;;;;;;;1.91;79.04;93798.56;5137780;27;20019;-76
2021/12/06 02:19:19;;;;;;;30.73;17.20;;;;;;;1.91;79.30;93798.56;5109725;27;20089;-76
2021/12/06 02:21:45;;;;;;;36.08;19.95;;;;;;;1.94;79.46;93806.88;5137547;27;20054;-76
2021/12/06 02:24:10;;;;;;;32.58;17.98;;;;;;;1.93;79.31;93814.66;5103268;27;20485;-76
2021/12/06 02:26:40;;;;;;;33.33;17.92;;;;;;;1.97;79.73;93803.28;5137460;27;20034;-76
2021/12/06 02:29:06;;;;;;;30.88;17.10;;;;;;;1.96;80.02;93814.47;5120063;27;20496;-76
2021/12/06 02:31:32;;;;;;;30.30;17.45;;;;;;;2.01;80.54;93808.13;5137306;27;20031;-76
2021/12/06 02:33:57;;;;;;;28.48;16.13;;;;;;;2.05;79.96;93806.16;5120156;27;20073;-76
2021/12/06 02:36:23;;;;;;;30.42;17.88;;;;;;;2.09;81.01;93794.81;5138661;27;20504;-76
2021/12/06 02:38:48;;;;;;;32.47;16.90;;;;;;;2.01;79.92;93791.94;5120289;27;20031;-76
2021/12/06 02:41:14;;;;;;;24.50;14.43;;;;;;;2.04;79.66;93784.06;5137183;27;20023;-76
2021/12/06 02:43:40;;;;;;;29.13;15.00;;;;;;;2.07;79.68;93781.28;5137219;27;20034;-76
2021/12/06 02:46:05;;;;;;;27.75;15.45;;;;;;;1.98;80.69;93784.47;5120080;27;20023;-76
2021/12/06 02:48:31;;;;;;;27.25;15.43;;;;;;;2.01;80.03;93774.00;5137227;27;20019;-76
2021/12/06 02:50:57;;;;;;;24.95;14.10;;;;;;;1.92;79.77;93779.72;5119972;27;20052;-76
2021/12/06 02:53:24;;;;;;;26.42;14.10;;;;;;;1.91;79.90;93781.47;5120099;27;20023;-76
2021/12/06 02:55:53;;;;;;;26.55;15.50;;;;;;;1.81;80.85;93775.28;5120256;27;20046;-76
2021/12/06 03:00:59;;;;;;;31.10;18.13;;;;;;;1.84;81.86;93762.31;5121510;27;20470;-76
2021/12/06 03:03:24;;;;;;;32.83;17.98;;;;;;;1.95;82.04;93761.56;5119869;27;20042;-76
2021/12/06 03:05:51;;;;;;;29.33;17.00;;;;;;;1.99;81.93;93775.84;5102830;27;20047;-76
2021/12/06 03:08:36;;;;;;;25.58;14.88;;;;;;;1.98;81.74;93777.59;5129761;27;20496;-74
2021/12/06 03:11:01;;;;;;;26.98;14.95;;;;;;;1.99;82.40;93775.84;5138371;27;20043;-78
2021/12/06 03:13:27;;;;;;;25.80;13.95;;;;;;;2.04;82.72;93767.88;5132373;27;20072;-76
2021/12/06 03:15:52;;;;;;;34.42;19.75;;;;;;;2.09;82.88;93761.50;5102955;28;20032;-76
2021/12/06 03:18:17;;;;;;;25.58;15.48;;;;;;;2.09;82.28;93750.41;5112381;27;20050;-76
2021/12/06 03:20:43;;;;;;;21.98;13.23;;;;;;;2.22;82.32;93769.19;5132730;27;20038;-75
2021/12/06 03:23:08;;;;;;;23.67;14.02;;;;;;;2.29;82.32;93779.88;5136724;27;20023;-76
2021/12/06 03:25:34;;;;;;;21.15;13.65;;;;;;;2.39;82.31;93791.94;5116098;27;20027;-76
2021/12/06 03:28:01;;;;;;;22.23;13.00;;;;;;;2.43;82.42;93792.56;5132324;27;20031;-76
2021/12/06 03:30:26;;;;;;;26.95;12.85;;;;;;;2.50;82.89;93782.72;5119221;27;20053;-76
2021/12/06 03:32:51;;;;;;;22.63;12.43;;;;;;;2.53;82.32;93783.31;5124174;27;20031;-76
2021/12/06 03:35:17;;;;;;;23.77;13.27;;;;;;;2.49;81.95;93778.53;5095892;28;20102;-76
2021/12/06 03:37:43;;;;;;;27.00;14.55;;;;;;;2.54;82.24;93789.28;5122662;27;20079;-76
2021/12/06 03:40:09;;;;;;;42.95;23.52;;;;;;;2.59;82.42;93784.66;5100332;28;20031;-76
2021/12/06 03:42:34;;;;;;;55.38;31.30;;;;;;;2.68;81.96;93777.16;5123694;27;20103;-76
2021/12/06 03:45:00;;;;;;;37.85;21.20;;;;;;;2.78;81.95;93768.81;5134713;27;20031;-76
2021/12/06 03:47:28;;;;;;;27.08;16.15;;;;;;;2.78;82.31;93761.94;5132074;27;20043;-76
2021/12/06 03:49:54;;;;;;;28.45;15.98;;;;;;;2.97;81.59;93761.50;5115726;27;20132;-76
2021/12/06 03:52:19;;;;;;;30.13;15.45;;;;;;;3.01;81.46;93762.09;5131690;27;20026;-76
2021/12/06 03:54:46;;;;;;;24.63;15.05;;;;;;;2.94;81.59;93761.72;5132905;27;20027;-76
2021/12/06 03:57:12;;;;;;;26.15;15.05;;;;;;;3.00;81.57;93766.41;5130786;27;20030;-76
2021/12/06 03:59:37;;;;;;;24.92;14.32;;;;;;;3.00;81.49;93765.59;5132962;27;20035;-76
2021/12/06 04:02:03;;;;;;;23.58;13.48;;;;;;;2.96;81.46;93767.56;5115712;27;20030;-76
2021/12/06 04:04:28;;;;;;;23.13;14.23;;;;;;;3.03;81.46;93785.91;5117821;27;20040;-77
2021/12/06 04:06:54;;;;;;;24.35;14.95;;;;;;;3.02;80.92;93764.56;5097898;27;20035;-76
2021/12/06 04:09:19;;;;;;;23.55;13.52;;;;;;;3.05;80.84;93766.91;5115264;27;20035;-76
2021/12/06 04:11:45;;;;;;;26.52;14.95;;;;;;;3.06;80.66;93770.28;5130204;27;20027;-76
2021/12/06 04:14:11;;;;;;;24.67;13.43;;;;;;;3.12;80.74;93780.13;5098984;27;20080;-76
2021/12/06 04:16:36;;;;;;;24.35;14.02;;;;;;;3.11;80.54;93776.75;5115394;27;20032;-76
2021/12/06 04:19:03;;;;;;;23.13;13.98;;;;;;;3.04;80.15;93774.72;5117198;27;20073;-76
2021/12/06 04:21:28;;;;;;;23.08;13.88;;;;;;;3.04;79.92;93767.84;5130696;27;20027;-76
2021/12/06 04:23:54;;;;;;;20.98;13.35;;;;;;;3.00;79.62;93765.59;5135830;27;20038;-76
2021/12/06 04:26:19;;;;;;;23.25;14.88;;;;;;;2.91;79.49;93751.66;5097435;27;20057;-76
2021/12/06 04:28:49;;;;;;;23.27;15.20;;;;;;;2.94;79.70;93764.28;5132257;27;20477;-76
2021/12/06 04:31:15;;;;;;;26.77;15.13;;;;;;;2.88;79.81;93754.44;5097306;27;20045;-76
2021/12/06 04:33:41;;;;;;;24.30;15.00;;;;;;;2.82;79.45;93760.00;5117600;27;20024;-76
2021/12/06 04:36:06;;;;;;;27.27;15.45;;;;;;;2.81;79.78;93766.84;5114801;27;20496;-76
2021/12/06 04:38:31;;;;;;;21.27;13.43;;;;;;;2.85;79.17;93764.91;5101952;27;20023;-76
2021/12/06 04:40:57;;;;;;;22.27;12.60;;;;;;;2.79;79.00;93747.41;5112065;28;20023;-76
2021/12/06 04:43:22;;;;;;;18.75;11.40;;;;;;;2.76;79.17;93753.56;5112912;28;20027;-76
2021/12/06 04:45:48;;;;;;;16.73;11.45;;;;;;;2.71;79.13;93749.66;5111870;28;20489;-76
2021/12/06 04:48:13;;;;;;;18.63;10.95;;;;;;;2.67;79.97;93743.91;5128607;27;20489;-76
2021/12/06 04:50:40;;;;;;;18.35;12.07;;;;;;;2.47;80.04;93750.41;5132277;27;20043;-76
2021/12/06 04:53:11;;;;;;;20.42;12.50;;;;;;;2.48;79.70;93759.75;5131957;27;20030;-76
2021/12/06 04:55:43;;;;;;;27.70;19.10;;;;;;;2.48;79.78;93767.44;5130391;27;20039;-76
2021/12/06 04:58:10;;;;;;;37.15;23.95;;;;;;;2.47;80.28;93774.28;5115004;27;20020;-76
2021/12/06 05:00:42;;;;;;;36.72;22.50;;;;;;;2.43;80.54;93765.19;5131990;27;20043;-76
2021/12/06 05:03:08;;;;;;;33.15;19.65;;;;;;;2.54;80.69;93784.97;5131587;27;20042;-76
2021/12/06 05:05:38;;;;;;;32.78;19.05;;;;;;;2.55;80.73;93776.34;5129135;27;20079;-76
2021/12/06 05:08:08;;;;;;;30.67;17.65;;;;;;;2.49;79.99;93769.09;5114084;27;20062;-76
2021/12/06 05:10:34;;;;;;;25.60;15.63;;;;;;;2.59;79.82;93766.69;5109053;28;20043;-76
2021/12/06 05:13:00;;;;;;;20.85;13.23;;;;;;;2.58;79.75;93758.19;5094146;28;20360;-76
2021/12/06 05:15:25;;;;;;;21.48;12.23;;;;;;;2.64;79.33;93772.34;5094448;28;20036;-76
2021/12/06 05:17:50;;;;;;;19.40;12.57;;;;;;;2.63;79.35;93779.22;5094211;28;20092;-76
2021/12/06 05:20:16;;;;;;;19.75;11.77;;;;;;;2.61;79.44;93791.31;5077185;28;20092;-76
2021/12/06 05:22:42;;;;;;;17.58;12.05;;;;;;;2.54;80.02;93771.34;5077020;28;20118;-76
2021/12/06 05:25:08;;;;;;;25.45;15.75;;;;;;;2.47;79.74;93799.13;5110976;28;20036;-76
2021/12/06 05:27:33;;;;;;;30.73;18.92;;;;;;;2.54;80.42;93814.94;5112184;27;20024;-76
2021/12/06 05:30:02;;;;;;;41.33;24.65;;;;;;;2.61;80.69;93800.75;5095770;27;20023;-76
2021/12/06 05:32:30;;;;;;;34.78;20.88;;;;;;;2.56;81.18;93792.53;5131232;27;20106;-76
2021/12/06 05:35:02;;;;;;;28.92;15.85;;;;;;;2.61;80.79;93796.44;5114720;27;20473;-76
2021/12/06 05:37:28;;;;;;;33.28;19.95;;;;;;;2.67;81.26;93790.06;5131402;27;20027;-76
2021/12/06 05:39:54;;;;;;;34.13;20.83;;;;;;;2.67;81.32;93787.50;5129372;27;20515;-76
2021/12/06 05:42:19;;;;;;;30.90;18.52;;;;;;;2.63;80.97;93789.47;5097315;27;20019;-76
2021/12/06 05:44:44;;;;;;;28.80;18.20;;;;;;;2.70;80.95;93787.28;5113652;27;20070;-76
2021/12/06 05:47:10;;;;;;;29.80;17.23;;;;;;;2.66;80.82;93783.31;5127442;27;20478;-76
2021/12/06 05:49:35;;;;;;;30.92;17.75;;;;;;;2.68;79.77;93787.41;5093596;28;20108;-76
2021/12/06 05:52:01;;;;;;;27.30;16.10;;;;;;;2.66;80.23;93785.88;5110394;28;20034;-76
2021/12/06 05:54:28;;;;;;;29.98;18.38;;;;;;;2.69;79.92;93791.59;5105363;28;20196;-76
2021/12/06 05:56:54;;;;;;;28.90;16.95;;;;;;;2.69;80.02;93785.66;5110422;28;20122;-76
2021/12/06 05:59:19;;;;;;;32.03;16.65;;;;;;;2.76;80.13;93786.91;5110451;28;20500;-76
2021/12/06 06:01:48;;;;;;;31.83;18.48;;;;;;;2.74;80.46;93785.38;5106247;28;20047;-76
2021/12/06 06:04:13;;;;;;;22.58;11.80;;;;;;;2.88;82.36;93774.97;5114273;27;20031;-76
2021/12/06 06:06:38;;;;;;;22.98;13.20;;;;;;;2.98;81.80;93778.53;5119108;28;20043;-76
2021/12/06 06:09:05;;;;;;;21.00;12.20;;;;;;;2.97;81.43;93796.59;5113210;28;20039;-76
2021/12/06 06:11:30;;;;;;;21.17;12.35;;;;;;;3.00;81.11;93794.63;5113269;28;20037;-76
2021/12/06 06:13:56;;;;;;;20.65;11.55;;;;;;;3.04;81.92;93774.72;5096870;28;20031;-76
2021/12/06 06:16:22;;;;;;;17.42;10.25;;;;;;;3.13;82.08;93772.31;5130442;28;20084;-76
2021/12/06 06:18:49;;;;;;;16.45;11.43;;;;;;;3.14;82.05;93771.38;5130567;28;20507;-76
2021/12/06 06:21:15;;;;;;;22.67;13.98;;;;;;;3.24;82.30;93778.47;5096542;28;20551;-76
2021/12/06 06:23:40;;;;;;;22.27;14.13;;;;;;;3.31;82.42;93779.66;5093023;28;20031;-76
2021/12/06 06:26:06;;;;;;;15.65;8.93;;;;;;;3.47;82.95;93780.19;5111151;28;20027;-76
2021/12/06 06:28:31;;;;;;;17.00;9.18;;;;;;;3.66;81.97;93789.16;5093277;28;20023;-76
2021/12/06 06:30:56;;;;;;;14.73;8.13;;;;;;;3.71;82.15;93785.34;5110131;28;20039;-77
2021/12/06 06:33:22;;;;;;;12.80;7.30;;;;;;;3.90;81.07;93795.09;5093242;28;20027;-77
2021/12/06 06:35:47;;;;;;;14.40;8.25;;;;;;;3.96;81.22;93792.09;5093020;28;20536;-77
2021/12/06 06:38:13;;;;;;;18.70;11.18;;;;;;;3.99;81.56;93797.00;5110069;28;20031;-76
2021/12/06 06:40:39;;;;;;;28.33;16.40;;;;;;;3.98;81.26;93800.50;5084072;28;20034;-77
2021/12/06 06:43:04;;;;;;;24.00;15.30;;;;;;;4.04;81.71;93814.66;5109880;28;20028;-77
2021/12/06 06:45:30;;;;;;;28.02;15.20;;;;;;;4.09;81.50;93804.03;5089605;28;20039;-76
2021/12/06 06:47:56;;;;;;;27.95;16.13;;;;;;;4.03;82.31;93808.69;5126889;28;20054;-77
2021/12/06 06:50:22;;;;;;;26.35;15.50;;;;;;;4.01;81.74;93815.69;5109548;28;20043;-77
2021/12/06 06:52:48;;;;;;;22.13;13.50;;;;;;;4.10;81.27;93797.97;5076396;28;20119;-76
2021/12/06 06:55:13;;;;;;;20.00;13.68;;;;;;;4.20;81.37;93804.06;5092845;28;20036;-77
2021/12/06 06:57:39;;;;;;;25.02;14.88;;;;;;;4.20;81.38;93809.19;5112562;28;20101;-77
2021/12/06 07:00:14;;;;;;;20.52;13.20;;;;;;;4.29;81.21;93823.13;5097696;28;20036;-77
2021/12/06 07:02:40;;;;;;;19.63;12.02;;;;;;;4.31;81.49;93822.06;5106341;28;20057;-77
2021/12/06 07:05:06;;;;;;;18.75;11.63;;;;;;;4.33;81.09;93815.06;5110018;27;20059;-76
2021/12/06 07:07:31;;;;;;;19.45;11.93;;;;;;;4.38;81.10;93823.28;5128386;27;20400;-77
2021/12/06 07:09:56;;;;;;;17.95;11.93;;;;;;;4.40;81.03;93823.97;5112724;28;20404;-76
2021/12/06 07:12:22;;;;;;;16.67;10.50;;;;;;;4.44;80.70;93825.38;5112003;27;20038;-77
2021/12/06 07:14:48;;;;;;;16.95;9.82;;;;;;;4.46;80.72;93813.22;5097848;27;20031;-78
2021/12/06 07:17:13;;;;;;;14.45;9.52;;;;;;;4.47;81.37;93804.56;5110190;28;20038;-77
2021/12/06 07:19:39;;;;;;;14.93;9.70;;;;;;;4.57;81.43;93807.28;5119440;27;20028;-77
2021/12/06 07:22:04;;;;;;;14.27;9.15;;;;;;;4.65;81.39;93806.69;5106211;27;20051;-77
2021/12/06 07:24:30;;;;;;;8.55;5.60;;;;;;;4.80;77.84;93802.16;5112937;27;20034;-76
2021/12/06 07:26:55;;;;;;;11.77;6.97;;;;;;;4.88;79.00;93803.19;5123978;27;20035;-77
2021/12/06 07:29:21;;;;;;;10.13;6.35;;;;;;;4.96;78.61;93802.63;5120661;27;20035;-76
2021/12/06 07:31:46;;;;;;;8.13;5.65;;;;;;;5.02;77.61;93796.19;5101789;28;20023;-77
2021/12/06 07:34:12;;;;;;;8.90;5.45;;;;;;;5.08;77.79;93801.66;5128098;27;20412;-77
2021/12/06 07:36:37;;;;;;;8.65;5.80;;;;;;;5.13;76.87;93809.03;5117572;27;20031;-77
2021/12/06 07:39:06;;;;;;;10.05;5.82;;;;;;;5.20;76.68;93810.19;5127614;27;20032;-77
2021/12/06 07:41:32;;;;;;;8.18;4.97;;;;;;;5.19;76.71;93807.75;5106745;28;20026;-76
2021/12/06 07:43:57;;;;;;;8.75;5.15;;;;;;;5.28;76.77;93787.22;5089377;27;20035;-76
2021/12/06 07:46:23;;;;;;;8.85;5.38;;;;;;;5.30;76.46;93789.72;5090406;27;20444;-76
2021/12/06 07:48:52;;;;;;;7.93;5.53;;;;;;;5.38;77.31;93789.94;5132247;27;20030;-76
2021/12/06 07:51:19;;;;;;;8.40;5.50;;;;;;;5.33;77.33;93804.91;5116769;27;20031;-76
2021/12/06 07:53:45;;;;;;;7.85;5.22;;;;;;;5.42;76.58;93799.03;5106961;28;20039;-76
2021/12/06 07:56:10;;;;;;;7.70;5.70;;;;;;;5.58;76.26;93796.06;5087176;28;20027;-76
2021/12/06 07:58:36;;;;;;;9.07;6.65;;;;;;;5.67;75.94;93795.34;5095732;28;20080;-76
2021/12/06 08:01:01;;;;;;;10.57;6.55;;;;;;;5.72;75.66;93805.28;5104037;28;20028;-75
2021/12/06 08:03:30;;;;;;;15.02;7.93;;;;;;;5.64;74.81;93808.47;5117547;27;20034;-80
2021/12/06 08:05:56;;;;;;;12.70;7.32;;;;;;;5.68;74.66;93794.38;5109474;27;20129;-78
2021/12/06 08:08:27;;;;;;;17.10;9.20;;;;;;;5.67;75.29;93803.06;5100564;28;20069;-82
2021/12/06 08:10:55;;;;;;;16.38;9.75;;;;;;;5.34;74.97;93752.47;5092885;27;20043;-78
2021/12/06 08:13:24;;;;;;;17.40;10.43;;;;;;;5.75;75.18;93812.78;5110483;27;20134;-77
2021/12/06 08:15:50;;;;;;;17.38;10.45;;;;;;;5.82;75.34;93814.75;5097032;27;20024;-78
2021/12/06 08:18:16;;;;;;;15.90;10.13;;;;;;;5.75;74.46;93790.38;5121916;27;20031;-78
2021/12/06 08:20:43;;;;;;;17.38;10.50;;;;;;;5.92;73.79;93809.66;5097547;27;20042;-76
2021/12/06 08:23:09;;;;;;;17.70;11.18;;;;;;;5.97;73.83;93812.72;5118304;27;20492;-75
2021/12/06 08:25:34;;;;;;;17.95;11.32;;;;;;;6.09;74.12;93822.97;5089263;27;20019;-75
2021/12/06 08:28:00;;;;;;;17.45;11.00;;;;;;;6.14;75.02;93810.53;5114035;27;20422;-75
2021/12/06 08:30:26;;;;;;;19.33;11.13;;;;;;;6.29;74.02;93808.47;5118455;27;20039;-77
2021/12/06 08:32:54;;;;;;;11.15;7.18;;;;;;;6.42;71.45;93797.00;5122210;27;20455;-76
2021/12/06 08:35:20;;;;;;;11.50;6.85;;;;;;;6.38;72.46;93795.63;5110193;27;20122;-76
2021/12/06 08:37:46;;;;;;;12.93;7.82;;;;;;;6.47;72.94;93770.84;5094365;28;20111;-78
2021/12/06 08:40:12;;;;;;;14.15;9.32;;;;;;;6.84;71.89;93778.88;5101199;27;20553;-74
2021/12/06 08:42:37;;;;;;;9.55;6.90;;;;;;;6.94;71.95;93784.09;5097619;27;20027;-73
2021/12/06 08:45:03;;;;;;;9.18;6.35;;;;;;;6.98;71.68;93789.81;5122115;27;20027;-78
2021/12/06 08:47:29;;;;;;;9.23;6.43;;;;;;;6.97;70.71;93794.16;5125897;27;20024;-76
2021/12/06 08:49:54;;;;;;;10.15;6.93;;;;;;;6.79;69.20;93775.88;5123805;27;20064;-79
2021/12/06 08:52:20;;;;;;;11.40;6.68;;;;;;;6.61;70.05;93783.41;5131479;27;20031;-75
2021/12/06 08:54:45;;;;;;;11.10;7.43;;;;;;;6.78;69.92;93776.81;5110008;27;20024;-79
2021/12/06 08:57:11;;;;;;;12.45;8.32;;;;;;;6.82;70.40;93785.94;5126559;27;20031;-77
2021/12/06 08:59:36;;;;;;;15.98;12.20;;;;;;;6.90;70.63;93782.72;5127714;27;20027;-75
2021/12/06 09:02:02;;;;;;;15.63;10.75;;;;;;;7.05;70.38;93783.16;5130934;27;20446;-75
2021/12/06 09:04:34;;;;;;;14.73;9.20;;;;;;;7.12;69.40;93779.94;5128795;27;20047;-75
2021/12/06 09:06:59;;;;;;;14.32;8.77;;;;;;;7.23;69.86;93781.59;5111439;27;20096;-76
2021/12/06 09:09:27;;;;;;;11.15;7.88;;;;;;;7.23;69.35;93760.94;5110221;27;20051;-77
2021/12/06 09:11:53;;;;;;;20.60;12.00;;;;;;;7.37;69.88;93781.22;5119029;27;20034;-77
2021/12/06 09:14:18;;;;;;;18.63;12.45;;;;;;;7.33;67.87;93768.72;5075154;28;20023;-77
2021/12/06 09:16:44;;;;;;;13.88;6.80;;;;;;;7.39;68.14;93763.81;5110141;27;20688;-83
2021/12/06 09:19:11;;;;;;;11.45;6.63;;;;;;;7.52;68.39;93760.16;5095839;27;20030;-79
2021/12/06 09:21:37;;;;;;;11.82;8.07;;;;;;;7.63;68.82;93764.41;5113554;27;20023;-78
2021/12/06 09:24:06;;;;;;;8.23;5.55;;;;;;;7.66;66.98;93766.72;5110422;28;20036;-78
2021/12/06 09:26:31;;;;;;;10.23;7.55;;;;;;;7.65;67.94;93770.25;5094327;28;20524;-78
2021/12/06 09:28:57;;;;;;;14.75;9.77;;;;;;;7.66;67.79;93739.13;5093683;28;20032;-77
2021/12/06 09:31:22;;;;;;;16.30;9.40;;;;;;;7.69;67.88;93736.25;5111051;28;20501;-76
2021/12/06 09:33:48;;;;;;;18.65;10.88;;;;;;;7.74;67.75;93734.06;5110687;28;20402;-77
2021/12/06 09:36:14;;;;;;;14.95;9.95;;;;;;;7.81;67.41;93742.09;5076767;28;20038;-78
2021/12/06 09:38:40;;;;;;;13.90;8.82;;;;;;;7.89;67.44;93739.66;5110693;28;20028;-74
2021/12/06 09:41:20;;;;;;;11.30;7.40;;;;;;;7.87;68.03;93735.56;5077123;28;20116;-78
2021/12/06 09:43:45;;;;;;;10.30;6.78;;;;;;;7.97;67.67;93742.38;5095199;28;20031;-77
2021/12/06 09:46:11;;;;;;;11.52;6.30;;;;;;;7.96;67.62;93750.25;5110787;28;20066;-77
2021/12/06 09:48:37;;;;;;;9.45;5.80;;;;;;;8.12;66.60;93757.47;5110447;28;20031;-77
2021/12/06 09:51:08;;;;;;;10.27;6.05;;;;;;;8.07;66.47;93742.34;5110584;28;20023;-78
2021/12/06 09:53:36;;;;;;;16.88;10.30;;;;;;;8.12;66.18;93753.09;5110688;28;20024;-76
2021/12/06 09:56:05;;;;;;;15.80;10.10;;;;;;;8.15;67.15;93734.72;5107821;28;20045;-77
2021/12/06 09:58:30;;;;;;;13.65;7.65;;;;;;;8.19;66.42;93720.56;5131067;27;20023;-77
2021/12/06 10:00:58;;;;;;;48.08;28.27;;;;;;;8.19;66.89;93728.31;5111851;27;20186;-78
2021/12/06 10:03:28;;;;;;;13.88;9.20;;;;;;;8.32;66.23;93734.97;5111854;28;20051;-78
2021/12/06 10:05:57;;;;;;;11.73;6.78;;;;;;;8.32;66.57;93720.25;5100437;27;20058;-76
2021/12/06 10:08:23;;;;;;;19.35;13.98;;;;;;;8.17;66.86;93695.78;5107223;28;20020;-78
2021/12/06 10:10:48;;;;;;;12.80;9.00;;;;;;;8.28;66.86;93690.44;5101415;28;20038;-79
2021/12/06 10:13:15;;;;;;;13.07;8.82;;;;;;;8.24;66.45;93697.66;5093157;28;20486;-80
2021/12/06 10:15:41;;;;;;;12.60;8.15;;;;;;;8.26;66.15;93694.94;5095324;27;20473;-77
2021/12/06 10:18:09;;;;;;;11.70;7.13;;;;;;;8.24;66.39;93681.31;5117343;27;20042;-78
2021/12/06 10:20:35;;;;;;;10.73;6.55;;;;;;;8.22;66.47;93683.25;5151523;27;20041;-78
2021/12/06 10:23:01;;;;;;;7.50;5.20;;;;;;;8.24;65.57;93669.19;5151660;27;20428;-78
2021/12/06 10:25:38;;;;;;;7.13;4.80;;;;;;;8.23;64.08;93643.47;5129280;27;20035;-78
2021/12/06 10:28:05;;;;;;;8.25;5.50;;;;;;;8.22;65.60;93642.66;5102595;28;20035;-77
2021/12/06 10:30:32;;;;;;;7.65;5.18;;;;;;;8.22;65.64;93657.38;5121830;27;20497;-77
2021/12/06 10:33:11;;;;;;;14.63;11.60;;;;;;;8.24;66.29;93660.63;5112750;27;20039;-78
2021/12/06 10:35:45;;;;;;;15.20;11.23;;;;;;;8.29;66.61;93663.59;5145447;27;20023;-77
2021/12/06 10:38:11;;;;;;;10.90;7.57;;;;;;;8.24;66.31;93660.63;5133636;27;20088;-78
2021/12/06 10:40:39;;;;;;;12.93;9.77;;;;;;;8.23;66.53;93659.81;5116287;27;20413;-78
2021/12/06 10:43:07;;;;;;;9.93;7.25;;;;;;;8.35;65.85;93646.69;5115879;27;20038;-77
2021/12/06 10:45:38;;;;;;;14.43;7.70;;;;;;;8.33;65.60;93643.44;5132856;27;20039;-77
2021/12/06 10:48:17;;;;;;;13.40;7.93;;;;;;;8.36;66.44;93635.38;5113058;27;20027;-76
2021/12/06 10:50:46;;;;;;;9.73;6.35;;;;;;;8.34;65.26;93626.97;5097957;28;20059;-76
2021/12/06 10:53:13;;;;;;;12.00;6.75;;;;;;;8.35;65.43;93629.41;5114913;28;20024;-76
2021/12/06 10:55:39;;;;;;;9.73;6.60;;;;;;;8.23;65.46;93627.97;5113935;28;20062;-76
2021/12/06 10:58:06;;;;;;;9.77;6.15;;;;;;;8.23;66.06;93635.72;5097114;27;20031;-76
2021/12/06 11:00:38;;;;;;;8.80;5.97;;;;;;;8.19;65.82;93647.28;5100925;28;20493;-76
2021/12/06 11:03:03;;;;;;;;;;;;;;;8.23;66.20;93644.28;5116649;27;20030;-76
2021/12/06 11:05:30;;;;;;;10.13;6.53;;;;;;;8.22;66.55;93647.03;5128879;27;19919;-76
2021/12/06 11:08:09;;;;;;;10.52;6.68;;;;;;;8.25;65.32;93657.09;5098131;27;20099;-76
2021/12/06 11:10:45;;;;;;;10.00;6.45;;;;;;;8.25;66.55;93647.56;5115275;27;20039;-76
2021/12/06 11:13:12;;;;;;;12.35;7.50;;;;;;;8.25;65.84;93652.72;5117026;27;20038;-76
2021/12/06 11:15:54;;;;;;;10.93;6.85;;;;;;;8.23;66.24;93646.06;5099902;27;20027;-76
2021/12/06 11:18:29;;;;;;;11.80;7.45;;;;;;;8.30;65.88;93644.53;5134046;27;20023;-76
2021/12/06 11:20:56;;;;;;;11.32;7.72;;;;;;;8.30;66.69;93652.28;5116759;27;20035;-76
2021/12/06 11:23:21;;;;;;;12.40;8.25;;;;;;;8.33;66.48;93657.22;5116448;27;20023;-76
2021/12/06 11:25:56;;;;;;;13.35;8.95;;;;;;;8.37;66.09;93642.22;5116729;27;20027;-76
2021/12/06 11:28:24;;;;;;;12.80;8.27;;;;;;;8.37;65.19;93624.09;5116512;27;20042;-76
2021/12/06 11:31:03;;;;;;;14.10;9.35;;;;;;;8.44;66.20;93651.03;5135431;27;20035;-76
2021/12/06 11:33:34;;;;;;;9.63;5.60;;;;;;;8.35;65.40;93644.13;5133716;27;20034;-76
2021/12/06 11:36:01;;;;;;;8.27;5.10;;;;;;;8.40;64.72;93655.69;5116405;27;20577;-76
2021/12/06 11:38:28;;;;;;;7.68;5.10;;;;;;;8.42;65.66;93658.97;5116260;27;20027;-76
2021/12/06 11:40:58;;;;;;;7.45;5.30;;;;;;;8.44;65.40;93648.47;5099680;27;20031;-76
2021/12/06 11:43:23;;;;;;;6.93;5.10;;;;;;;8.57;64.70;93653.31;5115284;27;20029;-76
2021/12/06 11:45:57;;;;;;;8.55;6.03;;;;;;;8.58;65.49;93647.19;5116362;27;20027;-76